sensor_id;sensor_type;location;lat;lon;timestamp;temperature;humidity
75170;SHT31;63749;49.186;9.222;2022-10-26T00:01:14;11.71;93.58
75170;SHT31;63749;49.186;9.222;2022-10-26T00:03:41;11.71;93.69
75170;SHT31;63749;49.186;9.222;2022-10-26T00:06:09;11.70;93.28
75170;SHT31;63749;49.186;9.222;2022-10-26T00:08:35;11.71;93.36
75170;SHT31;63749;49.186;9.222;2022-10-26T00:11:00;11.80;92.66
75170;SHT31;63749;49.186;9.222;2022-10-26T00:13:26;11.74;93.08
75170;SHT31;63749;49.186;9.222;2022-10-26T00:15:52;11.71;93.51
75170;SHT31;63749;49.186;9.222;2022-10-26T00:18:17;11.84;93.02
75170;SHT31;63749;49.186;9.222;2022-10-26T00:20:43;12.05;91.94
75170;SHT31;63749;49.186;9.222;2022-10-26T00:23:08;12.20;91.40
75170;SHT31;63749;49.186;9.222;2022-10-26T00:25:33;12.04;92.39
75170;SHT31;63749;49.186;9.222;2022-10-26T00:27:59;12.00;92.69
75170;SHT31;63749;49.186;9.222;2022-10-26T00:30:24;11.97;92.99
75170;SHT31;63749;49.186;9.222;2022-10-26T00:32:49;11.94;92.90
75170;SHT31;63749;49.186;9.222;2022-10-26T00:35:15;11.94;92.94
75170;SHT31;63749;49.186;9.222;2022-10-26T00:37:40;11.97;93.12
75170;SHT31;63749;49.186;9.222;2022-10-26T00:40:06;11.98;92.88
75170;SHT31;63749;49.186;9.222;2022-10-26T00:42:31;12.05;92.42
75170;SHT31;63749;49.186;9.222;2022-10-26T00:44:59;12.02;92.37
75170;SHT31;63749;49.186;9.222;2022-10-26T00:47:37;12.04;92.51
75170;SHT31;63749;49.186;9.222;2022-10-26T00:50:08;11.98;92.75
75170;SHT31;63749;49.186;9.222;2022-10-26T00:52:35;11.95;93.00
75170;SHT31;63749;49.186;9.222;2022-10-26T00:55:01;12.08;92.25
75170;SHT31;63749;49.186;9.222;2022-10-26T00:57:27;12.04;92.51
75170;SHT31;63749;49.186;9.222;2022-10-26T00:59:54;12.04;92.46
75170;SHT31;63749;49.186;9.222;2022-10-26T01:02:22;11.95;92.83
75170;SHT31;63749;49.186;9.222;2022-10-26T01:04:47;12.01;92.75
75170;SHT31;63749;49.186;9.222;2022-10-26T01:07:13;12.01;92.63
75170;SHT31;63749;49.186;9.222;2022-10-26T01:09:39;11.97;92.61
75170;SHT31;63749;49.186;9.222;2022-10-26T01:12:04;11.98;92.81
75170;SHT31;63749;49.186;9.222;2022-10-26T01:14:30;12.01;92.60
75170;SHT31;63749;49.186;9.222;2022-10-26T01:17:15;12.02;92.69
75170;SHT31;63749;49.186;9.222;2022-10-26T01:20:05;11.97;92.80
75170;SHT31;63749;49.186;9.222;2022-10-26T01:22:55;12.02;92.66
75170;SHT31;63749;49.186;9.222;2022-10-26T01:25:38;12.07;92.50
75170;SHT31;63749;49.186;9.222;2022-10-26T01:28:24;12.02;92.72
75170;SHT31;63749;49.186;9.222;2022-10-26T01:30:57;11.95;92.97
75170;SHT31;63749;49.186;9.222;2022-10-26T01:33:35;12.00;93.14
75170;SHT31;63749;49.186;9.222;2022-10-26T01:36:10;12.01;92.64
75170;SHT31;63749;49.186;9.222;2022-10-26T01:41:24;12.01;92.72
75170;SHT31;63749;49.186;9.222;2022-10-26T01:44:02;12.04;92.97
75170;SHT31;63749;49.186;9.222;2022-10-26T01:46:32;12.05;93.24
75170;SHT31;63749;49.186;9.222;2022-10-26T01:49:03;12.10;93.19
75170;SHT31;63749;49.186;9.222;2022-10-26T01:51:31;12.07;92.69
75170;SHT31;63749;49.186;9.222;2022-10-26T01:53:57;12.10;92.71
75170;SHT31;63749;49.186;9.222;2022-10-26T01:56:24;12.07;92.66
75170;SHT31;63749;49.186;9.222;2022-10-26T02:11:45;12.07;93.42
75170;SHT31;63749;49.186;9.222;2022-10-26T02:14:34;12.07;93.54
75170;SHT31;63749;49.186;9.222;2022-10-26T02:17:24;12.05;93.51
75170;SHT31;63749;49.186;9.222;2022-10-26T02:19:58;12.08;93.57
75170;SHT31;63749;49.186;9.222;2022-10-26T02:22:37;12.01;93.19
75170;SHT31;63749;49.186;9.222;2022-10-26T02:25:33;12.07;93.72
75170;SHT31;63749;49.186;9.222;2022-10-26T02:28:07;12.07;93.34
75170;SHT31;63749;49.186;9.222;2022-10-26T02:30:36;12.17;92.95
75170;SHT31;63749;49.186;9.222;2022-10-26T02:33:04;12.22;92.50
75170;SHT31;63749;49.186;9.222;2022-10-26T02:35:34;12.21;92.44
75170;SHT31;63749;49.186;9.222;2022-10-26T02:38:02;12.22;92.61
75170;SHT31;63749;49.186;9.222;2022-10-26T02:40:28;12.25;92.64
75170;SHT31;63749;49.186;9.222;2022-10-26T02:42:59;12.38;91.92
75170;SHT31;63749;49.186;9.222;2022-10-26T02:45:30;12.45;91.68
75170;SHT31;63749;49.186;9.222;2022-10-26T02:47:57;12.52;91.36
75170;SHT31;63749;49.186;9.222;2022-10-26T02:50:38;12.50;91.33
75170;SHT31;63749;49.186;9.222;2022-10-26T02:53:38;12.45;91.40
75170;SHT31;63749;49.186;9.222;2022-10-26T02:55:57;12.38;91.96
75170;SHT31;63749;49.186;9.222;2022-10-26T02:58:29;12.32;92.24
75170;SHT31;63749;49.186;9.222;2022-10-26T03:00:56;12.16;92.79
75170;SHT31;63749;49.186;9.222;2022-10-26T03:03:22;12.14;93.09
75170;SHT31;63749;49.186;9.222;2022-10-26T03:05:47;12.07;93.20
75170;SHT31;63749;49.186;9.222;2022-10-26T03:08:14;12.04;93.77
75170;SHT31;63749;49.186;9.222;2022-10-26T03:10:41;12.07;93.78
75170;SHT31;63749;49.186;9.222;2022-10-26T03:13:08;12.08;94.32
75170;SHT31;63749;49.186;9.222;2022-10-26T03:15:33;12.04;94.52
75170;SHT31;63749;49.186;9.222;2022-10-26T03:17:59;12.02;94.32
75170;SHT31;63749;49.186;9.222;2022-10-26T03:20:24;12.05;94.59
75170;SHT31;63749;49.186;9.222;2022-10-26T03:22:50;12.04;94.56
75170;SHT31;63749;49.186;9.222;2022-10-26T03:25:15;12.11;94.25
75170;SHT31;63749;49.186;9.222;2022-10-26T03:27:41;12.13;94.29
75170;SHT31;63749;49.186;9.222;2022-10-26T03:30:07;12.10;94.46
75170;SHT31;63749;49.186;9.222;2022-10-26T03:32:33;12.14;94.52
75170;SHT31;63749;49.186;9.222;2022-10-26T03:34:58;12.22;94.41
75170;SHT31;63749;49.186;9.222;2022-10-26T03:37:23;12.20;94.36
75170;SHT31;63749;49.186;9.222;2022-10-26T03:39:49;12.17;94.72
75170;SHT31;63749;49.186;9.222;2022-10-26T03:42:14;12.20;94.35
75170;SHT31;63749;49.186;9.222;2022-10-26T03:44:39;12.24;94.26
75170;SHT31;63749;49.186;9.222;2022-10-26T03:47:05;12.29;94.14
75170;SHT31;63749;49.186;9.222;2022-10-26T03:49:30;12.29;94.13
75170;SHT31;63749;49.186;9.222;2022-10-26T03:51:55;12.28;94.02
75170;SHT31;63749;49.186;9.222;2022-10-26T03:54:21;12.20;94.37
75170;SHT31;63749;49.186;9.222;2022-10-26T03:56:46;12.25;94.33
75170;SHT31;63749;49.186;9.222;2022-10-26T03:59:11;12.24;94.48
75170;SHT31;63749;49.186;9.222;2022-10-26T04:01:37;12.21;94.69
75170;SHT31;63749;49.186;9.222;2022-10-26T04:04:03;12.18;94.59
75170;SHT31;63749;49.186;9.222;2022-10-26T04:06:28;12.21;94.49
75170;SHT31;63749;49.186;9.222;2022-10-26T04:08:53;12.22;94.43
75170;SHT31;63749;49.186;9.222;2022-10-26T04:11:22;12.21;94.24
75170;SHT31;63749;49.186;9.222;2022-10-26T04:13:48;12.20;94.34
75170;SHT31;63749;49.186;9.222;2022-10-26T04:16:13;12.20;94.42
75170;SHT31;63749;49.186;9.222;2022-10-26T04:18:38;12.16;94.45
75170;SHT31;63749;49.186;9.222;2022-10-26T04:21:04;12.18;94.49
75170;SHT31;63749;49.186;9.222;2022-10-26T04:23:30;12.11;94.15
75170;SHT31;63749;49.186;9.222;2022-10-26T04:25:56;12.11;94.25
75170;SHT31;63749;49.186;9.222;2022-10-26T04:28:21;12.11;94.09
75170;SHT31;63749;49.186;9.222;2022-10-26T04:30:47;12.05;94.21
75170;SHT31;63749;49.186;9.222;2022-10-26T04:33:12;12.04;94.39
75170;SHT31;63749;49.186;9.222;2022-10-26T04:35:37;12.02;94.62
75170;SHT31;63749;49.186;9.222;2022-10-26T04:38:05;12.00;94.75
75170;SHT31;63749;49.186;9.222;2022-10-26T04:40:32;12.00;94.70
75170;SHT31;63749;49.186;9.222;2022-10-26T04:42:58;11.97;94.79
75170;SHT31;63749;49.186;9.222;2022-10-26T04:45:25;11.94;94.77
75170;SHT31;63749;49.186;9.222;2022-10-26T04:48:20;11.89;94.81
75170;SHT31;63749;49.186;9.222;2022-10-26T04:50:45;11.93;94.84
75170;SHT31;63749;49.186;9.222;2022-10-26T04:53:11;11.94;94.84
75170;SHT31;63749;49.186;9.222;2022-10-26T04:55:36;11.95;94.82
75170;SHT31;63749;49.186;9.222;2022-10-26T04:58:03;11.98;94.86
75170;SHT31;63749;49.186;9.222;2022-10-26T05:00:29;11.97;94.80
75170;SHT31;63749;49.186;9.222;2022-10-26T05:03:04;12.04;94.77
75170;SHT31;63749;49.186;9.222;2022-10-26T05:05:30;12.08;94.46
75170;SHT31;63749;49.186;9.222;2022-10-26T05:07:56;12.08;94.33
75170;SHT31;63749;49.186;9.222;2022-10-26T05:10:23;12.18;94.18
75170;SHT31;63749;49.186;9.222;2022-10-26T05:12:53;12.20;94.07
75170;SHT31;63749;49.186;9.222;2022-10-26T05:15:19;12.27;93.84
75170;SHT31;63749;49.186;9.222;2022-10-26T05:17:44;12.24;93.97
75170;SHT31;63749;49.186;9.222;2022-10-26T05:20:10;12.35;93.30
75170;SHT31;63749;49.186;9.222;2022-10-26T05:22:38;12.21;93.69
75170;SHT31;63749;49.186;9.222;2022-10-26T05:25:04;12.24;93.94
75170;SHT31;63749;49.186;9.222;2022-10-26T05:27:29;12.22;93.81
75170;SHT31;63749;49.186;9.222;2022-10-26T05:29:55;12.24;94.10
75170;SHT31;63749;49.186;9.222;2022-10-26T05:32:20;12.24;94.01
75170;SHT31;63749;49.186;9.222;2022-10-26T05:34:46;12.35;93.58
75170;SHT31;63749;49.186;9.222;2022-10-26T05:37:11;12.29;93.69
75170;SHT31;63749;49.186;9.222;2022-10-26T05:39:37;12.27;93.91
75170;SHT31;63749;49.186;9.222;2022-10-26T05:42:02;12.20;94.13
75170;SHT31;63749;49.186;9.222;2022-10-26T05:44:28;12.24;94.29
75170;SHT31;63749;49.186;9.222;2022-10-26T05:46:53;12.56;92.71
75170;SHT31;63749;49.186;9.222;2022-10-26T05:49:18;12.49;92.67
75170;SHT31;63749;49.186;9.222;2022-10-26T05:51:43;12.42;92.92
75170;SHT31;63749;49.186;9.222;2022-10-26T05:54:09;12.45;93.20
75170;SHT31;63749;49.186;9.222;2022-10-26T05:56:36;12.42;93.19
75170;SHT31;63749;49.186;9.222;2022-10-26T05:59:03;12.34;93.07
75170;SHT31;63749;49.186;9.222;2022-10-26T06:01:37;12.35;93.01
75170;SHT31;63749;49.186;9.222;2022-10-26T06:06:46;12.31;93.60
75170;SHT31;63749;49.186;9.222;2022-10-26T06:09:16;12.42;93.35
75170;SHT31;63749;49.186;9.222;2022-10-26T06:11:42;12.45;93.83
75170;SHT31;63749;49.186;9.222;2022-10-26T06:14:08;12.50;93.04
75170;SHT31;63749;49.186;9.222;2022-10-26T06:16:37;12.52;92.80
75170;SHT31;63749;49.186;9.222;2022-10-26T06:28:11;12.53;92.85
75170;SHT31;63749;49.186;9.222;2022-10-26T06:30:24;12.53;93.34
75170;SHT31;63749;49.186;9.222;2022-10-26T06:32:50;12.60;92.50
75170;SHT31;63749;49.186;9.222;2022-10-26T06:38:26;12.58;92.69
75170;SHT31;63749;49.186;9.222;2022-10-26T06:40:54;12.60;92.83
75170;SHT31;63749;49.186;9.222;2022-10-26T06:43:29;12.73;92.61
75170;SHT31;63749;49.186;9.222;2022-10-26T06:46:16;12.75;92.23
75170;SHT31;63749;49.186;9.222;2022-10-26T06:48:51;12.75;92.13
75170;SHT31;63749;49.186;9.222;2022-10-26T06:51:18;12.80;92.47
75170;SHT31;63749;49.186;9.222;2022-10-26T06:53:55;12.86;92.57
75170;SHT31;63749;49.186;9.222;2022-10-26T06:56:22;12.87;92.58
75170;SHT31;63749;49.186;9.222;2022-10-26T06:58:48;12.87;92.38
75170;SHT31;63749;49.186;9.222;2022-10-26T07:01:17;12.89;92.42
75170;SHT31;63749;49.186;9.222;2022-10-26T07:03:42;12.92;92.20
75170;SHT31;63749;49.186;9.222;2022-10-26T07:06:07;12.96;91.99
75170;SHT31;63749;49.186;9.222;2022-10-26T07:08:33;13.02;92.19
75170;SHT31;63749;49.186;9.222;2022-10-26T07:10:58;13.08;91.70
75170;SHT31;63749;49.186;9.222;2022-10-26T07:13:24;13.06;91.85
75170;SHT31;63749;49.186;9.222;2022-10-26T07:15:49;13.06;91.90
75170;SHT31;63749;49.186;9.222;2022-10-26T07:18:15;13.07;92.12
75170;SHT31;63749;49.186;9.222;2022-10-26T07:20:40;13.17;92.27
75170;SHT31;63749;49.186;9.222;2022-10-26T07:23:07;13.24;92.03
75170;SHT31;63749;49.186;9.222;2022-10-26T07:25:35;13.30;91.99
75170;SHT31;63749;49.186;9.222;2022-10-26T07:28:03;13.38;91.48
75170;SHT31;63749;49.186;9.222;2022-10-26T07:30:29;13.47;91.55
75170;SHT31;63749;49.186;9.222;2022-10-26T07:33:01;13.53;91.36
75170;SHT31;63749;49.186;9.222;2022-10-26T07:35:28;13.59;91.06
75170;SHT31;63749;49.186;9.222;2022-10-26T07:37:57;13.67;89.99
75170;SHT31;63749;49.186;9.222;2022-10-26T07:40:23;13.78;90.26
75170;SHT31;63749;49.186;9.222;2022-10-26T07:42:48;13.85;89.77
75170;SHT31;63749;49.186;9.222;2022-10-26T07:45:14;13.96;89.55
75170;SHT31;63749;49.186;9.222;2022-10-26T07:47:39;14.05;89.36
75170;SHT31;63749;49.186;9.222;2022-10-26T07:50:05;14.09;88.97
75170;SHT31;63749;49.186;9.222;2022-10-26T07:52:32;14.22;88.59
75170;SHT31;63749;49.186;9.222;2022-10-26T07:54:59;14.26;88.69
75170;SHT31;63749;49.186;9.222;2022-10-26T07:57:25;14.33;88.94
75170;SHT31;63749;49.186;9.222;2022-10-26T07:59:50;14.53;86.86
75170;SHT31;63749;49.186;9.222;2022-10-26T08:02:15;14.41;87.29
75170;SHT31;63749;49.186;9.222;2022-10-26T08:04:41;14.37;87.67
75170;SHT31;63749;49.186;9.222;2022-10-26T08:07:06;14.47;87.17
75170;SHT31;63749;49.186;9.222;2022-10-26T08:09:31;14.57;86.61
75170;SHT31;63749;49.186;9.222;2022-10-26T08:11:57;14.51;87.21
75170;SHT31;63749;49.186;9.222;2022-10-26T08:14:22;14.54;87.55
75170;SHT31;63749;49.186;9.222;2022-10-26T08:16:47;14.64;87.53
75170;SHT31;63749;49.186;9.222;2022-10-26T08:19:16;14.74;87.26
75170;SHT31;63749;49.186;9.222;2022-10-26T08:21:42;14.89;86.70
75170;SHT31;63749;49.186;9.222;2022-10-26T08:24:07;14.92;87.33
75170;SHT31;63749;49.186;9.222;2022-10-26T08:26:32;14.98;86.75
75170;SHT31;63749;49.186;9.222;2022-10-26T08:28:58;14.94;86.83
75170;SHT31;63749;49.186;9.222;2022-10-26T08:31:23;14.94;86.74
75170;SHT31;63749;49.186;9.222;2022-10-26T08:33:49;14.99;86.69
75170;SHT31;63749;49.186;9.222;2022-10-26T08:36:20;14.98;86.64
75170;SHT31;63749;49.186;9.222;2022-10-26T08:38:47;14.92;86.25
75170;SHT31;63749;49.186;9.222;2022-10-26T08:41:13;14.94;86.40
75170;SHT31;63749;49.186;9.222;2022-10-26T08:43:47;14.95;86.55
75170;SHT31;63749;49.186;9.222;2022-10-26T08:46:21;15.06;86.15
75170;SHT31;63749;49.186;9.222;2022-10-26T08:48:54;15.16;86.05
75170;SHT31;63749;49.186;9.222;2022-10-26T08:56:25;15.26;85.91
75170;SHT31;63749;49.186;9.222;2022-10-26T09:01:25;15.02;86.72
75170;SHT31;63749;49.186;9.222;2022-10-26T09:03:50;15.08;87.20
75170;SHT31;63749;49.186;9.222;2022-10-26T09:09:10;15.26;86.81
75170;SHT31;63749;49.186;9.222;2022-10-26T09:17:36;15.50;85.80
75170;SHT31;63749;49.186;9.222;2022-10-26T09:23:13;15.80;85.52
75170;SHT31;63749;49.186;9.222;2022-10-26T09:25:41;15.96;84.96
75170;SHT31;63749;49.186;9.222;2022-10-26T09:28:16;16.04;84.58
75170;SHT31;63749;49.186;9.222;2022-10-26T09:30:43;16.25;84.49
75170;SHT31;63749;49.186;9.222;2022-10-26T09:33:18;16.38;83.73
75170;SHT31;63749;49.186;9.222;2022-10-26T09:35:48;16.49;83.76
75170;SHT31;63749;49.186;9.222;2022-10-26T09:38:23;16.71;82.99
75170;SHT31;63749;49.186;9.222;2022-10-26T09:41:19;16.77;83.04
75170;SHT31;63749;49.186;9.222;2022-10-26T09:43:51;16.65;83.54
75170;SHT31;63749;49.186;9.222;2022-10-26T09:46:24;16.80;82.39
75170;SHT31;63749;49.186;9.222;2022-10-26T09:48:58;17.20;80.08
75170;SHT31;63749;49.186;9.222;2022-10-26T09:51:25;17.38;79.87
75170;SHT31;63749;49.186;9.222;2022-10-26T09:53:52;17.44;79.06
75170;SHT31;63749;49.186;9.222;2022-10-26T09:56:18;17.37;79.72
75170;SHT31;63749;49.186;9.222;2022-10-26T09:58:51;17.58;78.93
75170;SHT31;63749;49.186;9.222;2022-10-26T10:01:35;17.79;78.45
75170;SHT31;63749;49.186;9.222;2022-10-26T10:04:21;17.81;77.68
75170;SHT31;63749;49.186;9.222;2022-10-26T10:09:27;18.34;75.90
75170;SHT31;63749;49.186;9.222;2022-10-26T10:11:54;18.54;74.36
75170;SHT31;63749;49.186;9.222;2022-10-26T10:14:39;18.71;73.67
75170;SHT31;63749;49.186;9.222;2022-10-26T10:17:20;18.64;74.20
75170;SHT31;63749;49.186;9.222;2022-10-26T10:19:47;18.72;74.08
75170;SHT31;63749;49.186;9.222;2022-10-26T10:24:41;18.91;73.33
75170;SHT31;63749;49.186;9.222;2022-10-26T10:27:16;19.20;72.46
75170;SHT31;63749;49.186;9.222;2022-10-26T10:29:53;19.32;72.10
75170;SHT31;63749;49.186;9.222;2022-10-26T10:32:27;19.49;72.39
75170;SHT31;63749;49.186;9.222;2022-10-26T10:34:55;19.59;70.44
75170;SHT31;63749;49.186;9.222;2022-10-26T10:37:32;19.84;69.96
75170;SHT31;63749;49.186;9.222;2022-10-26T10:40:08;19.86;70.19
75170;SHT31;63749;49.186;9.222;2022-10-26T10:42:41;19.77;70.95
75170;SHT31;63749;49.186;9.222;2022-10-26T10:45:19;19.57;71.84
75170;SHT31;63749;49.186;9.222;2022-10-26T10:50:36;19.81;70.95
75170;SHT31;63749;49.186;9.222;2022-10-26T10:53:13;20.04;69.72
75170;SHT31;63749;49.186;9.222;2022-10-26T10:55:42;20.21;69.67
75170;SHT31;63749;49.186;9.222;2022-10-26T10:58:20;20.24;69.00
75170;SHT31;63749;49.186;9.222;2022-10-26T11:00:49;20.25;68.38
75170;SHT31;63749;49.186;9.222;2022-10-26T11:03:20;20.27;68.38
75170;SHT31;63749;49.186;9.222;2022-10-26T11:08:58;20.46;67.60
75170;SHT31;63749;49.186;9.222;2022-10-26T11:11:42;20.52;68.08
75170;SHT31;63749;49.186;9.222;2022-10-26T11:14:20;20.66;67.85
75170;SHT31;63749;49.186;9.222;2022-10-26T11:16:55;20.71;67.91
75170;SHT31;63749;49.186;9.222;2022-10-26T11:19:24;20.75;68.22
75170;SHT31;63749;49.186;9.222;2022-10-26T11:21:52;20.85;67.66
75170;SHT31;63749;49.186;9.222;2022-10-26T11:32:33;21.50;66.47
75170;SHT31;63749;49.186;9.222;2022-10-26T11:38:13;21.89;63.38
75170;SHT31;63749;49.186;9.222;2022-10-26T11:40:58;21.78;63.76
75170;SHT31;63749;49.186;9.222;2022-10-26T11:43:46;21.84;63.00
75170;SHT31;63749;49.186;9.222;2022-10-26T11:46:27;21.82;61.48
75170;SHT31;63749;49.186;9.222;2022-10-26T11:48:59;21.89;61.14
75170;SHT31;63749;49.186;9.222;2022-10-26T11:51:55;21.82;61.37
75170;SHT31;63749;49.186;9.222;2022-10-26T11:54:28;21.71;61.43
75170;SHT31;63749;49.186;9.222;2022-10-26T11:56:55;21.61;61.87
75170;SHT31;63749;49.186;9.222;2022-10-26T11:59:25;21.65;62.16
75170;SHT31;63749;49.186;9.222;2022-10-26T12:01:54;21.72;61.56
75170;SHT31;63749;49.186;9.222;2022-10-26T12:04:23;21.82;61.28
75170;SHT31;63749;49.186;9.222;2022-10-26T12:06:53;22.15;61.44
75170;SHT31;63749;49.186;9.222;2022-10-26T12:09:30;22.12;61.50
75170;SHT31;63749;49.186;9.222;2022-10-26T12:12:16;22.22;61.17
75170;SHT31;63749;49.186;9.222;2022-10-26T12:17:34;22.30;60.55
75170;SHT31;63749;49.186;9.222;2022-10-26T12:22:55;21.99;61.19
75170;SHT31;63749;49.186;9.222;2022-10-26T12:25:20;21.98;61.27
75170;SHT31;63749;49.186;9.222;2022-10-26T12:35:36;22.68;58.64
75170;SHT31;63749;49.186;9.222;2022-10-26T12:38:25;22.60;58.75
75170;SHT31;63749;49.186;9.222;2022-10-26T12:56:55;22.46;58.77
75170;SHT31;63749;49.186;9.222;2022-10-26T12:59:52;22.57;59.10
75170;SHT31;63749;49.186;9.222;2022-10-26T13:02:47;22.50;58.82
75170;SHT31;63749;49.186;9.222;2022-10-26T13:08:07;22.75;57.82
75170;SHT31;63749;49.186;9.222;2022-10-26T13:10:34;22.90;57.73
75170;SHT31;63749;49.186;9.222;2022-10-26T13:13:02;22.92;57.76
75170;SHT31;63749;49.186;9.222;2022-10-26T13:15:40;23.45;55.65
75170;SHT31;63749;49.186;9.222;2022-10-26T13:18:17;24.59;53.85
75170;SHT31;63749;49.186;9.222;2022-10-26T13:21:03;25.64;51.39
75170;SHT31;63749;49.186;9.222;2022-10-26T13:23:32;26.79;48.12
75170;SHT31;63749;49.186;9.222;2022-10-26T13:31:12;27.88;45.45
75170;SHT31;63749;49.186;9.222;2022-10-26T13:33:40;28.24;44.87
75170;SHT31;63749;49.186;9.222;2022-10-26T13:36:33;28.20;44.26
75170;SHT31;63749;49.186;9.222;2022-10-26T13:39:14;28.00;44.55
75170;SHT31;63749;49.186;9.222;2022-10-26T13:41:43;28.36;42.68
75170;SHT31;63749;49.186;9.222;2022-10-26T13:44:21;28.21;43.20
75170;SHT31;63749;49.186;9.222;2022-10-26T13:46:50;27.90;43.83
75170;SHT31;63749;49.186;9.222;2022-10-26T13:49:22;27.70;44.54
75170;SHT31;63749;49.186;9.222;2022-10-26T13:51:50;26.95;45.94
75170;SHT31;63749;49.186;9.222;2022-10-26T13:56:58;25.82;48.05
75170;SHT31;63749;49.186;9.222;2022-10-26T13:59:25;26.26;47.97
75170;SHT31;63749;49.186;9.222;2022-10-26T14:02:16;26.72;47.37
75170;SHT31;63749;49.186;9.222;2022-10-26T14:04:45;27.31;45.35
75170;SHT31;63749;49.186;9.222;2022-10-26T14:07:21;27.42;45.47
75170;SHT31;63749;49.186;9.222;2022-10-26T14:09:52;28.28;43.87
75170;SHT31;63749;49.186;9.222;2022-10-26T14:12:17;27.32;46.00
75170;SHT31;63749;49.186;9.222;2022-10-26T14:14:43;26.91;46.19
75170;SHT31;63749;49.186;9.222;2022-10-26T14:17:17;28.17;43.55
75170;SHT31;63749;49.186;9.222;2022-10-26T14:19:43;28.94;41.34
75170;SHT31;63749;49.186;9.222;2022-10-26T14:22:19;29.25;41.00
75170;SHT31;63749;49.186;9.222;2022-10-26T14:24:50;29.43;40.39
75170;SHT31;63749;49.186;9.222;2022-10-26T14:27:18;29.60;40.10
75170;SHT31;63749;49.186;9.222;2022-10-26T14:29:43;29.31;40.45
75170;SHT31;63749;49.186;9.222;2022-10-26T14:32:29;29.29;40.40
75170;SHT31;63749;49.186;9.222;2022-10-26T14:34:58;29.15;41.07
75170;SHT31;63749;49.186;9.222;2022-10-26T14:37:35;29.09;41.33
75170;SHT31;63749;49.186;9.222;2022-10-26T14:40:02;28.81;41.94
75170;SHT31;63749;49.186;9.222;2022-10-26T14:42:31;29.03;41.67
75170;SHT31;63749;49.186;9.222;2022-10-26T14:44:57;28.76;42.45
75170;SHT31;63749;49.186;9.222;2022-10-26T14:47:26;28.61;42.82
75170;SHT31;63749;49.186;9.222;2022-10-26T14:49:52;28.91;42.29
75170;SHT31;63749;49.186;9.222;2022-10-26T14:52:22;29.20;41.69
75170;SHT31;63749;49.186;9.222;2022-10-26T14:55:03;28.76;41.98
75170;SHT31;63749;49.186;9.222;2022-10-26T14:57:34;28.78;42.48
75170;SHT31;63749;49.186;9.222;2022-10-26T15:00:02;28.85;42.87
75170;SHT31;63749;49.186;9.222;2022-10-26T15:02:28;29.36;41.31
75170;SHT31;63749;49.186;9.222;2022-10-26T15:05:14;28.91;42.52
75170;SHT31;63749;49.186;9.222;2022-10-26T15:07:40;28.52;43.51
75170;SHT31;63749;49.186;9.222;2022-10-26T15:13:19;26.69;46.57
75170;SHT31;63749;49.186;9.222;2022-10-26T15:15:47;25.56;49.14
75170;SHT31;63749;49.186;9.222;2022-10-26T15:18:38;24.31;52.86
75170;SHT31;63749;49.186;9.222;2022-10-26T15:21:29;23.89;52.35
75170;SHT31;63749;49.186;9.222;2022-10-26T15:23:56;23.25;54.66
75170;SHT31;63749;49.186;9.222;2022-10-26T15:26:23;22.86;55.56
75170;SHT31;63749;49.186;9.222;2022-10-26T15:28:49;22.39;57.56
75170;SHT31;63749;49.186;9.222;2022-10-26T15:34:05;21.75;59.30
75170;SHT31;63749;49.186;9.222;2022-10-26T15:36:29;21.54;59.74
75170;SHT31;63749;49.186;9.222;2022-10-26T15:38:57;21.28;60.52
75170;SHT31;63749;49.186;9.222;2022-10-26T15:41:29;21.06;61.58
75170;SHT31;63749;49.186;9.222;2022-10-26T15:43:56;20.85;62.23
75170;SHT31;63749;49.186;9.222;2022-10-26T15:46:22;20.59;63.33
75170;SHT31;63749;49.186;9.222;2022-10-26T15:48:53;20.41;63.91
75170;SHT31;63749;49.186;9.222;2022-10-26T15:51:19;20.48;63.53
75170;SHT31;63749;49.186;9.222;2022-10-26T15:53:45;20.27;64.01
75170;SHT31;63749;49.186;9.222;2022-10-26T15:56:16;20.14;64.37
75170;SHT31;63749;49.186;9.222;2022-10-26T15:58:41;19.96;64.98
75170;SHT31;63749;49.186;9.222;2022-10-26T16:01:13;20.07;64.40
75170;SHT31;63749;49.186;9.222;2022-10-26T16:03:39;19.88;65.37
75170;SHT31;63749;49.186;9.222;2022-10-26T16:06:12;19.87;65.27
75170;SHT31;63749;49.186;9.222;2022-10-26T16:08:39;19.65;66.19
75170;SHT31;63749;49.186;9.222;2022-10-26T16:11:05;19.42;67.25
75170;SHT31;63749;49.186;9.222;2022-10-26T16:13:30;19.25;68.21
75170;SHT31;63749;49.186;9.222;2022-10-26T16:15:56;19.08;68.91
75170;SHT31;63749;49.186;9.222;2022-10-26T16:18:22;18.95;69.06
75170;SHT31;63749;49.186;9.222;2022-10-26T16:20:47;18.80;69.89
75170;SHT31;63749;49.186;9.222;2022-10-26T16:23:13;18.64;70.25
75170;SHT31;63749;49.186;9.222;2022-10-26T16:25:43;18.49;70.54
75170;SHT31;63749;49.186;9.222;2022-10-26T16:28:15;18.37;70.97
75170;SHT31;63749;49.186;9.222;2022-10-26T16:30:41;18.29;71.26
75170;SHT31;63749;49.186;9.222;2022-10-26T16:33:06;18.16;71.74
75170;SHT31;63749;49.186;9.222;2022-10-26T16:35:32;18.10;72.32
75170;SHT31;63749;49.186;9.222;2022-10-26T16:37:57;18.05;72.23
75170;SHT31;63749;49.186;9.222;2022-10-26T16:40:23;18.08;71.97
75170;SHT31;63749;49.186;9.222;2022-10-26T16:42:48;17.95;72.40
75170;SHT31;63749;49.186;9.222;2022-10-26T16:45:14;17.85;72.78
75170;SHT31;63749;49.186;9.222;2022-10-26T16:47:40;17.69;73.47
75170;SHT31;63749;49.186;9.222;2022-10-26T16:50:07;17.55;74.03
75170;SHT31;63749;49.186;9.222;2022-10-26T16:52:33;17.40;75.37
75170;SHT31;63749;49.186;9.222;2022-10-26T16:54:59;17.27;75.69
75170;SHT31;63749;49.186;9.222;2022-10-26T16:57:24;17.16;76.45
75170;SHT31;63749;49.186;9.222;2022-10-26T16:59:50;17.06;76.63
75170;SHT31;63749;49.186;9.222;2022-10-26T17:02:15;16.92;77.36
75170;SHT31;63749;49.186;9.222;2022-10-26T17:04:40;16.77;78.10
75170;SHT31;63749;49.186;9.222;2022-10-26T17:07:06;16.68;78.47
75170;SHT31;63749;49.186;9.222;2022-10-26T17:09:31;16.63;78.90
75170;SHT31;63749;49.186;9.222;2022-10-26T17:11:56;16.52;79.56
75170;SHT31;63749;49.186;9.222;2022-10-26T17:14:22;16.36;79.69
75170;SHT31;63749;49.186;9.222;2022-10-26T17:16:47;16.29;80.27
75170;SHT31;63749;49.186;9.222;2022-10-26T17:19:12;16.20;80.59
75170;SHT31;63749;49.186;9.222;2022-10-26T17:21:38;16.10;81.52
75170;SHT31;63749;49.186;9.222;2022-10-26T17:24:03;15.97;81.73
75170;SHT31;63749;49.186;9.222;2022-10-26T17:26:31;15.90;82.45
75170;SHT31;63749;49.186;9.222;2022-10-26T17:28:57;15.77;83.15
75170;SHT31;63749;49.186;9.222;2022-10-26T17:31:23;15.67;83.31
75170;SHT31;63749;49.186;9.222;2022-10-26T17:33:50;15.62;83.92
75170;SHT31;63749;49.186;9.222;2022-10-26T17:36:18;15.63;84.28
75170;SHT31;63749;49.186;9.222;2022-10-26T17:38:45;15.47;83.97
75170;SHT31;63749;49.186;9.222;2022-10-26T17:41:14;15.52;84.42
75170;SHT31;63749;49.186;9.222;2022-10-26T17:43:41;15.43;84.55